METAR AND TAF INFORMATION
METAR FOR LEST
ADDS - METARS form results

(1837 UTC 15 January 2021)
Data provider http://aviationweather.gov/metar/data/
 
METAR text: LEST 151830Z 01004KT CAVOK 06/04 Q1030 NOSIG
Conditions at: LEST (SANTIAGO/LABACOL, ES) observed 1830 UTC 15 January 2021
Temperature: 6.0°C (43°F)
Dewpoint: 4.0°C (39°F) [RH = 87%]
Pressure (altimeter): 30.41 inches Hg (1030.0 mb)
Winds: from the N (10 degrees) at 5 MPH (4 knots; 2.1 m/s)
Visibility: 6 or more miles (10+ km)
Ceiling: ceiling and visibility are OK
Clouds: unknown
Weather: no significant weather observed at this time

METAR text: LEST 151800Z 06002KT CAVOK 07/04 Q1030 NOSIG
Conditions at: LEST (SANTIAGO/LABACOL, ES) observed 1800 UTC 15 January 2021
Temperature: 7.0°C (45°F)
Dewpoint: 4.0°C (39°F) [RH = 81%]
Pressure (altimeter): 30.41 inches Hg (1030.0 mb)
Winds: from the ENE (60 degrees) at 2 MPH (2 knots; 1.0 m/s)
Visibility: 6 or more miles (10+ km)
Ceiling: ceiling and visibility are OK
Clouds: unknown
Weather: no significant weather observed at this time

Forecast for: LEST (SANTIAGO/LABACOL, ES)
Text: TAF LEST 151700Z 1518/1618 VRB04KT 9999 FEW010 TX11/1615Z TN04/1607Z
Forecast period: 1800 UTC 15 January 2021 to 1800 UTC 16 January 2021
Forecast type: FROM: standard forecast or significant change
Winds: variable direction winds at 5 MPH (4 knots; 2.1 m/s)
Visibility: 6 or more miles (10+ km)
Ceiling: at least 12,000 feet AGL
Clouds: few clouds at 1000 feet AGL
Weather: no significant weather forecast for this period
Text: PROB40
Forecast period: 0000 to 0900 UTC 16 January 2021
Forecast type: TEMPORARY: The following changes expected for less than half the time period
Visibility: 1.86 miles (2.99 km)
Ceiling: 1000 feet AGL
Clouds: broken clouds at 1000 feet AGL
Weather: BR  (mist)

 AIRPORT MAP

 RUNWAY INFORMATION
Runway 17 Runway length 10499 ft Runway width 148 ft
Runway elevation 1170 ft Runway displaced threshold 394 ft Runway heading 166
Runway 35 Runway length 10499 ft Runway width 148 ft
Runway elevation 1196 ft Runway displaced threshold 0 ft Runway heading 346

 AIRPORT FREQUENCIES
Type APP Name APP Frequency 118.2 MHZ
Type GND Name GND Frequency 121.7 MHZ
Type TWR Name TWR Frequency 118.75 MHZ

 AIRPORT NEAR NAVIGATION AIDS
Type NDB Name Santiago Frequency 417 KHZ
Type VOR-DME Name Santiago Frequency 116400 KHZ